createdAt,value
2019-03-16T00:02:11.072Z,8.57
2019-03-16T00:04:39.201Z,7.40
2019-03-16T00:07:07.318Z,9.17
2019-03-16T00:09:35.397Z,11.83
2019-03-16T00:12:03.624Z,10.67
2019-03-16T00:14:31.841Z,9.87
2019-03-16T00:16:59.921Z,6.97
2019-03-16T00:19:28.041Z,13.03
2019-03-16T00:21:56.152Z,8.13
2019-03-16T00:24:24.214Z,10.97
2019-03-16T00:26:52.285Z,9.70
2019-03-16T00:29:20.831Z,13.37
2019-03-16T00:31:48.886Z,10.27
2019-03-16T00:34:16.947Z,7.03
2019-03-16T00:36:44.980Z,9.90
2019-03-16T00:39:13.078Z,12.33
2019-03-16T00:41:41.140Z,7.33
2019-03-16T00:44:09.223Z,12.10
2019-03-16T00:46:37.373Z,10.10
2019-03-16T00:49:05.438Z,12.83
2019-03-16T00:51:33.499Z,9.13
2019-03-16T00:54:03.211Z,9.63
2019-03-16T00:56:31.278Z,10.87
2019-03-16T00:58:59.339Z,14.37
2019-03-16T01:01:27.435Z,11.03
2019-03-16T01:03:55.498Z,11.57
2019-03-16T01:06:23.698Z,8.17
2019-03-16T01:08:51.775Z,12.53
2019-03-16T01:11:19.876Z,8.03
2019-03-16T01:13:47.969Z,14.10
2019-03-16T01:16:16.039Z,13.53
2019-03-16T01:18:46.997Z,18.33
2019-03-16T01:21:15.215Z,13.30
2019-03-16T01:23:43.318Z,10.17
2019-03-16T01:26:11.544Z,10.60
2019-03-16T01:28:39.648Z,12.57
2019-03-16T01:31:07.761Z,12.67
2019-03-16T01:33:35.826Z,14.47
2019-03-16T01:36:03.895Z,11.20
2019-03-16T01:38:32.028Z,12.10
2019-03-16T01:41:00.105Z,16.37
2019-03-16T01:43:28.199Z,13.23
2019-03-16T01:45:56.289Z,13.50
2019-03-16T01:48:24.354Z,16.03
2019-03-16T01:50:52.456Z,13.93
2019-03-16T01:53:20.521Z,11.53
2019-03-16T01:55:48.647Z,13.33
2019-03-16T01:58:16.777Z,15.57
2019-03-16T02:00:44.839Z,13.83
2019-03-16T02:03:12.953Z,21.90
2019-03-16T02:05:41.112Z,13.87
2019-03-16T02:08:09.904Z,17.03
2019-03-16T02:10:38.081Z,14.93
2019-03-16T02:13:06.289Z,16.00
2019-03-16T02:15:34.775Z,10.87
2019-03-16T02:18:02.866Z,12.17
2019-03-16T02:20:31.063Z,12.17
2019-03-16T02:23:00.448Z,16.87
2019-03-16T02:25:28.553Z,15.27
2019-03-16T02:27:57.582Z,17.43
2019-03-16T02:30:25.683Z,11.37
2019-03-16T02:33:11.065Z,13.63
2019-03-16T02:35:23.484Z,17.00
2019-03-16T02:37:51.540Z,13.20
2019-03-16T02:40:20.769Z,13.67
2019-03-16T02:42:48.893Z,12.10
2019-03-16T02:45:16.955Z,11.60
2019-03-16T02:47:45.069Z,11.97
2019-03-16T02:50:13.214Z,11.03
2019-03-16T02:52:41.312Z,12.50
2019-03-16T02:55:09.407Z,9.83
2019-03-16T02:57:37.614Z,11.47
2019-03-16T03:00:07.367Z,14.80
2019-03-16T03:02:35.431Z,11.77
2019-03-16T03:05:03.583Z,13.73
2019-03-16T03:07:31.811Z,11.43
2019-03-16T03:09:59.885Z,13.00
2019-03-16T03:12:27.995Z,17.33
2019-03-16T03:14:56.063Z,16.23
2019-03-16T03:17:24.125Z,9.63
2019-03-16T03:19:52.233Z,9.50
2019-03-16T03:22:20.403Z,12.17
2019-03-16T03:24:48.471Z,8.50
2019-03-16T03:27:16.572Z,12.53
2019-03-16T03:29:44.640Z,11.03
2019-03-16T03:32:12.710Z,14.13
2019-03-16T03:34:40.812Z,8.17
2019-03-16T03:37:08.876Z,7.10
2019-03-16T03:39:37.072Z,12.70
2019-03-16T03:42:05.193Z,14.17
2019-03-16T03:44:33.342Z,10.67
2019-03-16T03:47:02.092Z,14.80
2019-03-16T03:49:30.161Z,12.03
2019-03-16T03:51:58.348Z,13.07
2019-03-16T03:54:26.442Z,9.57
2019-03-16T03:56:54.507Z,13.73
2019-03-16T03:59:22.681Z,10.90
2019-03-16T04:01:50.973Z,14.37
2019-03-16T04:04:19.234Z,11.50
2019-03-16T04:06:47.504Z,12.90
2019-03-16T04:09:15.865Z,12.13
2019-03-16T04:11:43.938Z,8.73
2019-03-16T04:14:11.998Z,12.37
2019-03-16T04:16:40.100Z,13.10
2019-03-16T04:19:08.208Z,6.17
2019-03-16T04:21:36.265Z,6.33
2019-03-16T04:24:04.359Z,6.87
2019-03-16T04:26:32.532Z,5.47
2019-03-16T04:29:00.682Z,5.67
2019-03-16T04:31:28.760Z,6.93
2019-03-16T04:33:56.978Z,12.20
2019-03-16T04:36:25.033Z,14.47
2019-03-16T04:38:53.076Z,12.73
2019-03-16T04:41:21.566Z,9.20
2019-03-16T04:43:49.619Z,9.00
2019-03-16T04:46:17.812Z,9.40
2019-03-16T04:48:46.488Z,12.33
2019-03-16T04:51:14.563Z,10.23
2019-03-16T04:53:42.645Z,9.50
2019-03-16T04:56:10.738Z,9.20
2019-03-16T04:58:38.806Z,7.40
2019-03-16T05:01:06.864Z,6.40
2019-03-16T05:03:34.964Z,7.97
2019-03-16T05:06:03.055Z,6.60
2019-03-16T05:08:31.385Z,6.63
2019-03-16T05:10:59.462Z,7.63
2019-03-16T05:13:27.560Z,12.30
2019-03-16T05:15:55.626Z,7.80
2019-03-16T05:18:23.708Z,9.00
2019-03-16T05:20:51.781Z,6.17
2019-03-16T05:23:21.042Z,9.23
2019-03-16T05:25:49.120Z,8.17
2019-03-16T05:28:17.170Z,6.13
2019-03-16T05:30:45.271Z,7.63
2019-03-16T05:33:13.333Z,12.73
2019-03-16T05:35:41.430Z,9.07
2019-03-16T05:38:09.507Z,7.70
2019-03-16T05:40:37.600Z,8.37
2019-03-16T05:43:05.681Z,10.90
2019-03-16T05:45:33.736Z,18.33
2019-03-16T05:48:02.533Z,11.70
2019-03-16T05:50:30.708Z,8.37
2019-03-16T05:52:58.957Z,11.53
2019-03-16T05:55:27.160Z,7.07
2019-03-16T05:57:55.239Z,13.37
2019-03-16T06:00:23.447Z,9.40
2019-03-16T06:02:51.770Z,10.57
2019-03-16T06:05:19.914Z,11.90
2019-03-16T06:07:48.020Z,8.13
2019-03-16T06:10:18.571Z,5.73
2019-03-16T06:12:46.973Z,9.63
2019-03-16T06:15:15.132Z,15.37
2019-03-16T06:17:43.232Z,11.20
2019-03-16T06:20:11.341Z,8.23
2019-03-16T06:22:39.620Z,9.33
2019-03-16T06:25:07.799Z,8.60
2019-03-16T06:27:35.991Z,9.87
2019-03-16T06:30:04.418Z,8.47
2019-03-16T06:32:32.524Z,9.47
2019-03-16T06:35:00.632Z,8.40
2019-03-16T06:37:28.702Z,7.83
2019-03-16T06:39:56.793Z,8.47
2019-03-16T06:42:24.887Z,13.67
2019-03-16T06:44:52.953Z,9.13
2019-03-16T06:47:23.210Z,7.13
2019-03-16T06:49:50.875Z,8.57
2019-03-16T06:52:18.993Z,9.00
2019-03-16T06:54:47.085Z,8.13
2019-03-16T06:57:15.199Z,10.27
2019-03-16T06:59:43.251Z,13.97
2019-03-16T07:02:11.335Z,7.30
2019-03-16T07:04:39.431Z,9.47
2019-03-16T07:07:07.741Z,8.83
2019-03-16T07:09:35.847Z,9.87
2019-03-16T07:12:05.945Z,12.33
2019-03-16T07:14:34.008Z,12.53
2019-03-16T07:17:04.427Z,8.50
2019-03-16T07:19:33.859Z,9.13
2019-03-16T07:22:02.167Z,9.53
2019-03-16T07:24:30.324Z,9.33
2019-03-16T07:26:58.432Z,11.80
2019-03-16T07:29:26.537Z,8.40
2019-03-16T07:31:54.583Z,8.20
2019-03-16T07:34:22.638Z,5.83
2019-03-16T07:36:50.775Z,11.83
2019-03-16T07:39:18.993Z,10.50
2019-03-16T07:41:47.094Z,8.73
2019-03-16T07:44:15.163Z,9.17
2019-03-16T07:46:43.235Z,14.77
2019-03-16T07:49:11.361Z,10.97
2019-03-16T07:51:39.458Z,10.50
2019-03-16T07:54:08.020Z,10.73
2019-03-16T07:56:36.076Z,9.70
2019-03-16T07:59:04.151Z,12.07
2019-03-16T08:01:32.247Z,11.30
2019-03-16T08:04:00.339Z,8.47
2019-03-16T08:06:28.440Z,11.97
2019-03-16T08:08:56.504Z,8.40
2019-03-16T08:11:25.065Z,8.23
2019-03-16T08:13:53.234Z,12.17
2019-03-16T08:16:21.354Z,12.87
2019-03-16T08:18:49.595Z,12.43
2019-03-16T08:21:17.840Z,15.50
2019-03-16T08:23:45.929Z,13.53
2019-03-16T08:26:14.101Z,13.90
2019-03-16T08:28:42.491Z,12.53
2019-03-16T08:31:10.578Z,13.33
2019-03-16T08:33:38.669Z,15.53
2019-03-16T08:36:06.776Z,14.73
2019-03-16T08:38:34.923Z,16.30
2019-03-16T08:41:03.027Z,15.97
2019-03-16T08:43:31.341Z,17.83
2019-03-16T08:45:59.453Z,18.20
2019-03-16T08:48:27.516Z,18.27
2019-03-16T08:50:55.591Z,18.60
2019-03-16T08:53:23.817Z,20.37
2019-03-16T08:55:52.009Z,16.00
2019-03-16T08:58:20.160Z,19.93
2019-03-16T09:00:48.293Z,15.83
2019-03-16T09:03:16.612Z,15.13
2019-03-16T09:05:44.792Z,17.67
2019-03-16T09:08:12.848Z,14.93
2019-03-16T09:10:41.065Z,16.30
2019-03-16T09:13:09.402Z,15.77
2019-03-16T09:15:37.528Z,13.73
2019-03-16T09:18:05.593Z,10.87
2019-03-16T09:20:33.829Z,12.60
2019-03-16T09:23:01.963Z,13.60
2019-03-16T09:25:30.370Z,13.23
2019-03-16T09:27:58.454Z,12.40
2019-03-16T09:30:26.607Z,12.50
2019-03-16T09:32:54.677Z,10.20
2019-03-16T09:35:22.796Z,10.10
2019-03-16T09:37:50.874Z,8.83
2019-03-16T09:40:20.200Z,12.90
2019-03-16T09:42:48.304Z,10.87
2019-03-16T09:45:16.443Z,11.60
2019-03-16T09:47:44.611Z,9.23
2019-03-16T09:50:12.761Z,9.57
2019-03-16T09:52:40.783Z,6.37
2019-03-16T09:55:09.147Z,9.83
2019-03-16T09:57:37.255Z,8.50
2019-03-16T10:00:05.907Z,9.40
2019-03-16T10:02:34.025Z,9.50
2019-03-16T10:05:02.165Z,8.60
2019-03-16T10:07:30.442Z,8.83
2019-03-16T10:09:58.500Z,10.80
2019-03-16T10:12:26.819Z,7.33
2019-03-16T10:14:54.874Z,5.93
2019-03-16T10:17:24.784Z,7.53
2019-03-16T10:19:52.934Z,7.57
2019-03-16T10:22:21.221Z,4.43
2019-03-16T10:24:49.513Z,7.10
2019-03-16T10:27:17.777Z,4.50
2019-03-16T10:29:45.866Z,6.63
2019-03-16T10:32:14.046Z,4.70
2019-03-16T10:34:42.144Z,8.47
2019-03-16T10:37:10.287Z,5.10
2019-03-16T10:39:38.469Z,6.90
2019-03-16T10:42:07.097Z,6.47
2019-03-16T10:44:35.348Z,7.10
2019-03-16T10:47:03.424Z,6.43
2019-03-16T10:49:31.531Z,8.47
2019-03-16T10:51:59.705Z,7.07
2019-03-16T10:54:27.800Z,9.23
2019-03-16T10:56:55.935Z,11.60
2019-03-16T10:59:24.196Z,11.13
2019-03-16T11:01:52.224Z,11.33
2019-03-16T11:04:20.401Z,10.33
2019-03-16T11:06:48.543Z,12.47
2019-03-16T11:09:16.618Z,10.50
2019-03-16T11:11:45.185Z,14.50
2019-03-16T11:14:13.274Z,11.40
2019-03-16T11:16:41.378Z,14.33
2019-03-16T11:19:09.528Z,10.67
2019-03-16T11:21:37.947Z,14.27
2019-03-16T11:24:06.009Z,9.37
2019-03-16T11:26:34.150Z,13.30
2019-03-16T11:29:09.051Z,14.03
2019-03-16T11:31:31.927Z,8.87
2019-03-16T11:34:00.161Z,14.47
2019-03-16T11:36:28.275Z,10.90
2019-03-16T11:38:56.358Z,12.37
2019-03-16T11:41:24.454Z,15.20
2019-03-16T11:43:52.561Z,10.33
2019-03-16T11:46:20.668Z,11.43
2019-03-16T11:48:48.742Z,9.93
2019-03-16T11:51:17.113Z,7.57
2019-03-16T11:53:45.216Z,11.30
2019-03-16T11:56:18.347Z,9.63
2019-03-16T11:58:43.161Z,8.37
2019-03-16T12:01:11.309Z,9.03
2019-03-16T12:03:39.397Z,11.60
2019-03-16T12:06:07.468Z,7.07
2019-03-16T12:08:35.909Z,7.30
2019-03-16T12:11:03.965Z,8.57
2019-03-16T12:13:32.016Z,8.97
2019-03-16T12:16:00.239Z,10.13
2019-03-16T12:18:28.628Z,8.20
2019-03-16T12:20:56.821Z,10.23
2019-03-16T12:23:25.022Z,9.43
2019-03-16T12:25:53.158Z,8.33
2019-03-16T12:28:21.284Z,8.20
2019-03-16T12:30:49.422Z,9.47
2019-03-16T12:33:17.525Z,10.70
2019-03-16T12:35:45.638Z,8.50
2019-03-16T12:38:13.752Z,6.97
2019-03-16T12:40:41.933Z,8.80
2019-03-16T12:43:10.358Z,7.53
2019-03-16T12:45:38.452Z,8.80
2019-03-16T12:48:06.616Z,7.43
2019-03-16T12:50:34.809Z,8.53
2019-03-16T12:53:02.888Z,10.10
2019-03-16T12:55:30.942Z,7.23
2019-03-16T12:57:59.075Z,5.63
2019-03-16T13:00:27.165Z,9.87
2019-03-16T13:02:55.290Z,8.37
2019-03-16T13:05:23.356Z,8.83
2019-03-16T13:07:51.568Z,8.13
2019-03-16T13:10:19.748Z,5.80
2019-03-16T13:12:47.836Z,7.97
2019-03-16T13:15:16.222Z,6.37
2019-03-16T13:17:44.306Z,3.27
2019-03-16T13:20:16.030Z,7.23
2019-03-16T13:22:44.363Z,8.20
2019-03-16T13:25:12.500Z,2.80
2019-03-16T13:27:40.723Z,6.00
2019-03-16T13:30:09.460Z,7.77
2019-03-16T13:32:37.542Z,8.20
2019-03-16T13:35:05.634Z,6.37
2019-03-16T13:37:33.754Z,7.27
2019-03-16T13:40:04.761Z,3.63
2019-03-16T13:42:33.037Z,5.57
2019-03-16T13:45:01.121Z,6.33
2019-03-16T13:47:29.262Z,3.90
2019-03-16T13:49:57.484Z,5.20
2019-03-16T13:52:25.560Z,5.37
2019-03-16T13:54:53.652Z,7.13
2019-03-16T13:57:22.149Z,5.43
2019-03-16T13:59:50.267Z,5.10
2019-03-16T14:02:20.749Z,6.87
2019-03-16T14:04:49.174Z,5.10
2019-03-16T14:07:17.458Z,6.17
2019-03-16T14:09:46.024Z,3.37
2019-03-16T14:14:52.670Z,6.53
2019-03-16T14:17:27.673Z,4.80
2019-03-16T14:19:55.811Z,3.53
2019-03-16T14:22:23.903Z,3.77
2019-03-16T14:24:52.046Z,5.70
2019-03-16T14:27:20.126Z,4.77
2019-03-16T14:29:48.527Z,4.00
2019-03-16T14:32:16.780Z,4.40
2019-03-16T14:34:44.951Z,9.03
2019-03-16T14:37:13.058Z,3.57
2019-03-16T14:39:41.177Z,3.03
2019-03-16T14:42:09.469Z,4.77
2019-03-16T14:44:37.590Z,4.23
2019-03-16T14:47:05.775Z,3.40
2019-03-16T14:49:33.873Z,4.93
2019-03-16T14:52:02.914Z,3.53
2019-03-16T14:54:31.141Z,3.43
2019-03-16T14:57:01.829Z,4.37
2019-03-16T14:59:29.017Z,3.13
2019-03-16T15:01:57.392Z,3.87
2019-03-16T15:04:25.450Z,5.10
2019-03-16T15:06:53.567Z,3.50
2019-03-16T15:09:21.643Z,4.30
2019-03-16T15:11:49.757Z,4.03
2019-03-16T15:14:21.823Z,5.97
2019-03-16T15:16:47.608Z,3.73
2019-03-16T15:19:16.078Z,3.30
2019-03-16T15:21:44.232Z,3.97
2019-03-16T15:24:12.300Z,4.53
2019-03-16T15:26:40.523Z,3.67
2019-03-16T15:29:08.605Z,3.43
2019-03-16T15:31:37.806Z,3.00
2019-03-16T15:34:05.870Z,2.80
2019-03-16T15:36:34.111Z,7.30
2019-03-16T15:39:02.394Z,6.03
2019-03-16T15:41:30.484Z,3.60
2019-03-16T15:43:58.747Z,5.30
2019-03-16T15:46:26.928Z,6.03
2019-03-16T15:48:55.162Z,3.97
2019-03-16T15:51:24.159Z,5.83
2019-03-16T15:53:52.397Z,4.00
2019-03-16T15:56:20.572Z,4.77
2019-03-16T15:58:48.778Z,6.87
2019-03-16T16:01:16.954Z,4.37
2019-03-16T16:03:45.034Z,5.30
2019-03-16T16:06:13.273Z,3.57
2019-03-16T16:08:41.381Z,6.60
2019-03-16T16:11:09.523Z,2.07
2019-03-16T16:13:37.858Z,3.93
2019-03-16T16:16:06.204Z,1.83
2019-03-16T16:18:34.459Z,2.53
2019-03-16T16:21:02.529Z,3.87
2019-03-16T16:23:30.664Z,3.67
2019-03-16T16:25:58.852Z,3.80
2019-03-16T16:28:27.594Z,2.87
2019-03-16T16:30:55.761Z,5.20
2019-03-16T16:33:23.865Z,4.13
2019-03-16T16:35:51.941Z,3.17
2019-03-16T16:38:20.150Z,6.37
2019-03-16T16:40:49.339Z,2.87
2019-03-16T16:43:17.436Z,2.43
2019-03-16T16:45:46.871Z,6.97
2019-03-16T16:48:15.031Z,3.60
2019-03-16T16:50:43.343Z,5.50
2019-03-16T16:53:11.440Z,4.57
2019-03-16T16:55:39.511Z,5.27
2019-03-16T16:58:07.559Z,5.10
2019-03-16T17:00:35.704Z,5.53
2019-03-16T17:03:03.899Z,2.57
2019-03-16T17:05:32.102Z,5.43
2019-03-16T17:08:00.308Z,5.57
2019-03-16T17:10:30.296Z,6.83
2019-03-16T17:12:58.371Z,4.37
2019-03-16T17:15:26.576Z,6.20
2019-03-16T17:17:54.673Z,7.30
2019-03-16T17:20:22.761Z,6.10
2019-03-16T17:22:51.493Z,4.87
2019-03-16T17:25:19.588Z,5.50
2019-03-16T17:27:47.707Z,8.40
2019-03-16T17:30:16.857Z,8.00
2019-03-16T17:32:44.915Z,4.63
2019-03-16T17:35:13.023Z,6.97
2019-03-16T17:37:41.110Z,5.07
2019-03-16T17:40:09.461Z,5.40
2019-03-16T17:42:37.532Z,5.17
2019-03-16T17:45:05.690Z,3.73
2019-03-16T17:47:34.178Z,6.47
2019-03-16T17:50:02.277Z,5.73
2019-03-16T17:52:30.351Z,6.23
2019-03-16T17:54:58.451Z,5.93
2019-03-16T17:57:26.522Z,8.37
2019-03-16T17:59:54.680Z,7.40
2019-03-16T18:02:22.736Z,4.23
2019-03-16T18:04:50.973Z,5.73
2019-03-16T18:07:19.044Z,8.40
2019-03-16T18:09:47.161Z,10.20
2019-03-16T18:12:15.323Z,6.00
2019-03-16T18:14:43.390Z,5.20
2019-03-16T18:17:11.612Z,7.33
2019-03-16T18:19:39.770Z,5.70
2019-03-16T18:22:07.848Z,5.33
2019-03-16T18:24:35.999Z,7.57
2019-03-16T18:27:04.095Z,5.73
2019-03-16T18:29:32.192Z,6.20
2019-03-16T18:32:07.787Z,7.20
2019-03-16T18:34:30.095Z,7.10
2019-03-16T18:36:58.188Z,7.53
2019-03-16T18:39:26.268Z,6.60
2019-03-16T18:41:54.394Z,6.90
2019-03-16T18:44:22.534Z,8.17
2019-03-16T18:46:50.798Z,8.57
2019-03-16T18:49:19.056Z,5.17
2019-03-16T18:51:47.234Z,7.33
2019-03-16T18:54:15.341Z,7.33
2019-03-16T18:56:43.426Z,7.60
2019-03-16T18:59:12.119Z,7.40
2019-03-16T19:01:40.378Z,9.73
2019-03-16T19:04:08.521Z,9.20
2019-03-16T19:06:38.564Z,8.70
2019-03-16T19:09:07.547Z,6.00
2019-03-16T19:11:35.631Z,7.67
2019-03-16T19:14:04.054Z,7.17
2019-03-16T19:16:32.143Z,6.23
2019-03-16T19:19:00.283Z,5.57
2019-03-16T19:21:28.379Z,8.37
2019-03-16T19:23:56.514Z,8.00
2019-03-16T19:26:25.707Z,6.50
2019-03-16T19:28:53.938Z,8.40
2019-03-16T19:31:22.396Z,6.37
2019-03-16T19:33:52.769Z,8.07
2019-03-16T19:36:20.260Z,7.23
2019-03-16T19:38:48.387Z,6.63
2019-03-16T19:41:16.689Z,6.57
2019-03-16T19:43:44.840Z,5.43
2019-03-16T19:46:13.324Z,8.07
2019-03-16T19:48:41.507Z,5.77
2019-03-16T19:51:09.655Z,4.77
2019-03-16T19:53:37.939Z,5.17
2019-03-16T19:56:08.652Z,7.67
2019-03-16T19:58:35.875Z,9.93
2019-03-16T20:01:04.245Z,7.13
2019-03-16T20:03:32.547Z,4.93
2019-03-16T20:06:00.675Z,5.77
2019-03-16T20:08:28.859Z,5.33
2019-03-16T20:11:05.887Z,6.50
2019-03-16T20:13:27.045Z,9.23
2019-03-16T20:15:55.307Z,7.70
2019-03-16T20:18:23.491Z,7.77
2019-03-16T20:20:51.709Z,8.23
2019-03-16T20:23:21.714Z,7.00
2019-03-16T20:25:49.988Z,8.63
2019-03-16T20:28:18.508Z,5.50
2019-03-16T20:30:46.946Z,6.50
2019-03-16T20:33:15.092Z,6.83
2019-03-16T20:35:43.315Z,5.93
2019-03-16T20:38:11.585Z,6.00
2019-03-16T20:40:39.912Z,5.17
2019-03-16T20:43:08.040Z,7.77
2019-03-16T20:45:36.413Z,6.67
2019-03-16T20:48:04.628Z,5.30
2019-03-16T20:50:32.816Z,7.27
2019-03-16T20:53:02.122Z,8.40
2019-03-16T20:55:30.351Z,7.17
2019-03-16T20:57:58.619Z,7.00
2019-03-16T21:00:28.654Z,6.60
2019-03-16T21:02:56.606Z,9.03
2019-03-16T21:05:24.913Z,6.70
2019-03-16T21:07:54.148Z,9.70
2019-03-16T21:10:22.643Z,9.47
2019-03-16T21:12:50.783Z,9.60
2019-03-16T21:15:19.041Z,10.97
2019-03-16T21:17:47.480Z,10.43
2019-03-16T21:20:16.244Z,12.23
2019-03-16T21:22:44.560Z,8.20
2019-03-16T21:25:12.873Z,7.87
2019-03-16T21:27:41.296Z,9.57
2019-03-16T21:30:10.627Z,13.40
2019-03-16T21:32:38.743Z,8.57
2019-03-16T21:35:06.951Z,8.97
2019-03-16T21:37:35.120Z,10.93
2019-03-16T21:40:03.358Z,11.60
2019-03-16T21:42:32.236Z,7.27
2019-03-16T21:45:00.408Z,8.73
2019-03-16T21:47:28.445Z,7.90
2019-03-16T21:49:56.955Z,8.43
2019-03-16T21:52:25.508Z,9.47
2019-03-16T21:54:53.627Z,8.70
2019-03-16T21:57:21.826Z,9.47
2019-03-16T21:59:50.052Z,6.33
2019-03-16T22:02:18.282Z,10.77
2019-03-16T22:04:46.388Z,11.10
2019-03-16T22:07:17.817Z,6.40
2019-03-16T22:09:46.166Z,11.07
2019-03-16T22:12:14.288Z,9.17
2019-03-16T22:14:42.536Z,9.67
2019-03-16T22:17:10.651Z,7.40
2019-03-16T22:19:39.042Z,8.23
2019-03-16T22:22:07.415Z,11.40
2019-03-16T22:24:35.586Z,10.53
2019-03-16T22:27:04.231Z,9.23
2019-03-16T22:29:33.154Z,9.90
2019-03-16T22:32:01.262Z,10.47
2019-03-16T22:34:29.325Z,9.93
2019-03-16T22:36:57.563Z,13.13
2019-03-16T22:39:25.746Z,8.63
2019-03-16T22:41:53.950Z,9.80
2019-03-16T22:44:22.075Z,10.47
2019-03-16T22:46:50.199Z,8.97
2019-03-16T22:49:18.334Z,11.90
2019-03-16T22:51:46.392Z,7.33
2019-03-16T22:54:14.535Z,9.03
2019-03-16T22:56:42.593Z,9.73
2019-03-16T22:59:10.800Z,10.27
2019-03-16T23:01:38.990Z,8.50
2019-03-16T23:04:07.393Z,9.43
2019-03-16T23:06:35.597Z,9.53
2019-03-16T23:09:04.242Z,10.67
2019-03-16T23:11:32.343Z,10.67
2019-03-16T23:14:00.439Z,9.27
2019-03-16T23:16:28.603Z,8.07
2019-03-16T23:18:56.680Z,10.17
2019-03-16T23:21:25.031Z,12.13
2019-03-16T23:23:53.148Z,13.63
2019-03-16T23:26:21.260Z,10.33
2019-03-16T23:28:49.664Z,10.33
2019-03-16T23:31:17.768Z,12.57
2019-03-16T23:33:45.835Z,6.77
2019-03-16T23:36:13.899Z,7.70
2019-03-16T23:38:42.417Z,10.87
2019-03-16T23:41:10.780Z,11.67
2019-03-16T23:43:38.967Z,15.17
2019-03-16T23:46:07.199Z,13.53
2019-03-16T23:48:35.362Z,10.67
2019-03-16T23:51:03.409Z,11.23
2019-03-16T23:53:31.478Z,8.30
2019-03-16T23:55:59.593Z,11.40
2019-03-16T23:58:28.061Z,13.60
